Wetterstation Vordersexau
Wetterdaten: Woche 10.07.17 - 16.07.17 (KW28)
Datum Zeit Temp. A. Feuchte A. Luftdruck Regen Wind Richtung Taupunkt Windchill Windben
10.07.2017 00:00 18,8 C 81 % 1009,0 hPa 0,0 l/m 0,0 km/h NO 15,5 C 18,8 C 0,0 km/h
10.07.2017 01:00 18,3 C 81 % 1009,2 hPa 0,5 l/m 0,0 km/h N-NO 15,0 C 18,3 C 0,0 km/h
10.07.2017 02:00 17,9 C 80 % 1008,3 hPa 0,0 l/m 0,0 km/h O-NO 14,4 C 17,9 C 0,0 km/h
10.07.2017 03:00 17,5 C 79 % 1007,5 hPa 0,0 l/m 0,0 km/h O-NO 13,8 C 17,5 C 0,0 km/h
10.07.2017 04:00 16,5 C 79 % 1007,7 hPa 0,0 l/m 0,0 km/h O-NO 12,8 C 16,5 C 0,0 km/h
10.07.2017 05:00 16,9 C 77 % 1007,4 hPa 0,5 l/m 0,0 km/h NO 12,8 C 16,9 C 0,0 km/h
10.07.2017 06:00 17,7 C 75 % 1007,4 hPa 0,0 l/m 0,0 km/h O 13,2 C 17,7 C 0,0 km/h
10.07.2017 07:00 18,8 C 74 % 1007,7 hPa 0,0 l/m 0,0 km/h W-SW 14,1 C 18,8 C 0,0 km/h
10.07.2017 08:00 20,5 C 83 % 1008,0 hPa 0,0 l/m 8,4 km/h W 17,5 C 19,7 C 4,7 km/h
10.07.2017 09:00 22,1 C 80 % 1008,5 hPa 0,0 l/m 0,0 km/h W-SW 18,5 C 22,1 C 0,0 km/h
10.07.2017 10:00 22,6 C 77 % 1008,7 hPa 0,0 l/m 14,3 km/h W-SW 18,4 C 20,5 C 7,9 km/h
10.07.2017 11:00 22,8 C 74 % 1008,9 hPa 0,0 l/m 0,0 km/h W 17,9 C 22,8 C 0,0 km/h
10.07.2017 12:00 25,3 C 67 % 1008,6 hPa 0,0 l/m 11,7 km/h W-SW 18,7 C 24,2 C 6,5 km/h
10.07.2017 13:00 24,6 C 67 % 1008,8 hPa 0,0 l/m 7,8 km/h S-SW 18,1 C 24,2 C 4,3 km/h
10.07.2017 14:00 25,3 C 66 % 1008,9 hPa 0,0 l/m 22,7 km/h W-SW 18,5 C 22,8 C 12,6 km/h
10.07.2017 15:00 21,3 C 79 % 1009,3 hPa 0,5 l/m 21,4 km/h S 17,5 C 17,7 C 11,9 km/h
10.07.2017 16:00 22,6 C 77 % 1009,2 hPa 0,5 l/m 11,0 km/h W 18,4 C 21,3 C 6,1 km/h
10.07.2017 17:00 30,5 C 54 % 1008,6 hPa 0,0 l/m 3,2 km/h SW 20,1 C 30,5 C 1,8 km/h
10.07.2017 18:00 25,1 C 66 % 1008,6 hPa 0,0 l/m 0,0 km/h N 18,3 C 25,1 C 0,0 km/h
10.07.2017 19:00 22,9 C 71 % 1008,4 hPa 0,0 l/m 0,0 km/h O-NO 17,4 C 22,9 C 0,0 km/h
10.07.2017 20:00 19,8 C 76 % 1008,5 hPa 0,0 l/m 0,0 km/h SO 15,4 C 19,8 C 0,0 km/h
10.07.2017 21:00 14,8 C 83 % 1010,9 hPa 11,9 l/m 17,5 km/h O-SO 11,9 C 10,2 C 9,7 km/h
10.07.2017 22:00 14,9 C 81 % 1011,1 hPa 0,5 l/m 0,0 km/h N-NO 11,7 C 14,9 C 0,0 km/h
10.07.2017 23:00 15,2 C 80 % 1011,6 hPa 0,0 l/m 0,0 km/h S-SW 11,8 C 15,2 C 0,0 km/h
11.07.2017 00:00 15,8 C 76 % 1012,2 hPa 2,6 l/m 0,0 km/h S-SW 11,6 C 15,8 C 0,0 km/h
11.07.2017 01:00 16,4 C 77 % 1011,7 hPa 0,5 l/m 20,1 km/h S-SO 12,4 C 11,5 C 11,2 km/h
11.07.2017 02:00 16,1 C 81 % 1011,8 hPa 0,0 l/m 19,4 km/h S-SO 12,8 C 11,3 C 10,8 km/h
11.07.2017 03:00 15,6 C 80 % 1012,0 hPa 0,0 l/m 0,0 km/h S 12,2 C 15,6 C 0,0 km/h
11.07.2017 04:00 16,0 C 82 % 1012,1 hPa 0,0 l/m 7,8 km/h S-SO 12,9 C 15,3 C 4,3 km/h
11.07.2017 05:00 16,6 C 83 % 1012,3 hPa 0,0 l/m 0,0 km/h S-SW 13,7 C 16,6 C 0,0 km/h
11.07.2017 06:00 17,3 C 83 % 1012,4 hPa 0,0 l/m 7,1 km/h W-SW 14,4 C 17,0 C 4,0 km/h
11.07.2017 07:00 18,8 C 82 % 1012,7 hPa 0,0 l/m 0,0 km/h SW 15,7 C 18,8 C 0,0 km/h
11.07.2017 08:00 20,4 C 76 % 1013,0 hPa 0,0 l/m 0,0 km/h S 16,0 C 20,4 C 0,0 km/h
11.07.2017 09:00 21,6 C 74 % 1012,8 hPa 0,0 l/m 10,4 km/h W-SW 16,8 C 20,3 C 5,8 km/h
11.07.2017 10:00 22,3 C 69 % 1013,2 hPa 0,0 l/m 2,6 km/h W-SW 16,3 C 22,3 C 1,4 km/h
11.07.2017 11:00 23,9 C 63 % 1013,0 hPa 0,0 l/m 14,9 km/h W 16,4 C 22,0 C 8,3 km/h
11.07.2017 12:00 24,4 C 61 % 1013,0 hPa 0,0 l/m 23,3 km/h SW 16,4 C 21,5 C 13,0 km/h
11.07.2017 13:00 24,3 C 61 % 1013,0 hPa 0,0 l/m 22,7 km/h W 16,3 C 21,4 C 12,6 km/h
11.07.2017 14:00 25,9 C 54 % 1012,4 hPa 0,0 l/m 0,0 km/h S 15,9 C 25,9 C 0,0 km/h
11.07.2017 15:00 25,6 C 52 % 1012,4 hPa 0,0 l/m 1,9 km/h SW 15,0 C 25,6 C 1,1 km/h
11.07.2017 16:00 23,1 C 64 % 1012,2 hPa 0,0 l/m 11,0 km/h N-NW 15,9 C 21,8 C 6,1 km/h
11.07.2017 17:00 24,4 C 58 % 1011,7 hPa 0,0 l/m 0,0 km/h S 15,6 C 24,4 C 0,0 km/h
11.07.2017 18:00 24,4 C 62 % 1011,8 hPa 0,0 l/m 8,4 km/h SW 16,6 C 23,9 C 4,7 km/h
11.07.2017 19:00 23,1 C 63 % 1011,5 hPa 0,0 l/m 2,6 km/h W 15,7 C 23,1 C 1,4 km/h
11.07.2017 20:00 21,4 C 67 % 1012,0 hPa 0,0 l/m 0,0 km/h S-SW 15,0 C 21,4 C 0,0 km/h
11.07.2017 21:00 19,3 C 72 % 1012,1 hPa 0,0 l/m 0,0 km/h N-NO 14,1 C 19,3 C 0,0 km/h
11.07.2017 22:00 18,6 C 78 % 1012,3 hPa 0,0 l/m 0,0 km/h N-NO 14,7 C 18,6 C 0,0 km/h
11.07.2017 23:00 18,1 C 80 % 1012,4 hPa 0,0 l/m 0,0 km/h N-NO 14,6 C 18,1 C 0,0 km/h
12.07.2017 00:00 17,8 C 82 % 1012,5 hPa 0,0 l/m 0,0 km/h N-NO 14,7 C 17,8 C 0,0 km/h
12.07.2017 01:00 17,5 C 82 % 1012,0 hPa 0,0 l/m 0,0 km/h N-NO 14,4 C 17,5 C 0,0 km/h
12.07.2017 02:00 17,3 C 82 % 1011,7 hPa 0,0 l/m 0,0 km/h N-NO 14,2 C 17,3 C 0,0 km/h
12.07.2017 03:00 17,3 C 83 % 1011,3 hPa 0,0 l/m 0,0 km/h N-NO 14,4 C 17,3 C 0,0 km/h
12.07.2017 04:00 17,3 C 83 % 1010,8 hPa 0,0 l/m 0,0 km/h N-NO 14,4 C 17,3 C 0,0 km/h
12.07.2017 05:00 17,1 C 83 % 1010,7 hPa 0,0 l/m 0,0 km/h N-NO 14,2 C 17,1 C 0,0 km/h
12.07.2017 06:00 17,8 C 83 % 1010,5 hPa 0,0 l/m 0,0 km/h SW 14,9 C 17,8 C 0,0 km/h
12.07.2017 07:00 19,9 C 79 % 1010,6 hPa 0,0 l/m 18,8 km/h SW 16,1 C 16,3 C 10,4 km/h
12.07.2017 08:00 20,9 C 71 % 1010,9 hPa 0,0 l/m 8,4 km/h S 15,4 C 20,2 C 4,7 km/h
12.07.2017 09:00 21,4 C 69 % 1011,0 hPa 0,0 l/m 17,5 km/h SW 15,5 C 18,5 C 9,7 km/h
12.07.2017 10:00 22,1 C 66 % 1011,2 hPa 0,0 l/m 11,7 km/h W-SW 15,4 C 20,5 C 6,5 km/h
12.07.2017 11:00 21,2 C 67 % 1011,3 hPa 0,0 l/m 31,8 km/h W-SW 14,8 C 16,2 C 17,6 km/h
12.07.2017 12:00 22,9 C 66 % 1011,0 hPa 0,0 l/m 5,8 km/h W-SW 16,2 C 22,9 C 3,2 km/h
12.07.2017 13:00 22,9 C 64 % 1011,0 hPa 0,0 l/m 23,3 km/h S-SW 15,7 C 19,5 C 13,0 km/h
12.07.2017 14:00 25,3 C 62 % 1010,9 hPa 0,0 l/m 22,7 km/h W 17,5 C 22,8 C 12,6 km/h
12.07.2017 15:00 26,8 C 56 % 1011,5 hPa 0,0 l/m 18,8 km/h W-SW 17,3 C 25,1 C 10,4 km/h
12.07.2017 16:00 25,1 C 57 % 1011,5 hPa 0,0 l/m 19,4 km/h W 16,0 C 22,9 C 10,8 km/h
12.07.2017 17:00 23,5 C 64 % 1012,7 hPa 0,0 l/m 14,3 km/h N-NO 16,3 C 21,6 C 7,9 km/h
12.07.2017 18:00 21,4 C 72 % 1013,8 hPa 0,0 l/m 7,8 km/h O-SO 16,1 C 20,9 C 4,3 km/h
12.07.2017 19:00 19,1 C 82 % 1014,4 hPa 0,0 l/m 0,0 km/h O-NO 16,0 C 19,1 C 0,0 km/h
12.07.2017 20:00 19,2 C 82 % 1014,9 hPa 0,0 l/m 0,0 km/h N 16,0 C 19,2 C 0,0 km/h
12.07.2017 21:00 17,7 C 83 % 1016,3 hPa 1,0 l/m 0,0 km/h N 14,8 C 17,7 C 0,0 km/h
12.07.2017 22:00 17,1 C 82 % 1017,0 hPa 0,0 l/m 0,0 km/h O-SO 14,0 C 17,1 C 0,0 km/h
12.07.2017 23:00 16,8 C 81 % 1017,5 hPa 0,0 l/m 0,0 km/h N-NO 13,5 C 16,8 C 0,0 km/h
13.07.2017 00:00 16,8 C 80 % 1017,5 hPa 0,0 l/m 0,0 km/h N-NO 13,3 C 16,8 C 0,0 km/h
13.07.2017 01:00 16,9 C 79 % 1017,7 hPa 0,0 l/m 0,0 km/h N 13,2 C 16,9 C 0,0 km/h
13.07.2017 02:00 16,7 C 78 % 1017,9 hPa 0,0 l/m 0,0 km/h N 12,8 C 16,7 C 0,0 km/h
13.07.2017 03:00 15,9 C 78 % 1017,8 hPa 0,0 l/m 0,0 km/h N-NW 12,1 C 15,9 C 0,0 km/h
13.07.2017 04:00 15,6 C 77 % 1017,8 hPa 0,0 l/m 0,0 km/h NW 11,6 C 15,6 C 0,0 km/h
13.07.2017 05:00 13,9 C 77 % 1018,2 hPa 0,0 l/m 0,0 km/h W 9,9 C 13,9 C 0,0 km/h
13.07.2017 06:00 14,0 C 74 % 1018,9 hPa 0,0 l/m 0,0 km/h W 9,4 C 14,0 C 0,0 km/h
13.07.2017 07:00 14,4 C 81 % 1019,2 hPa 0,0 l/m 0,0 km/h W-SW 11,2 C 14,4 C 0,0 km/h
13.07.2017 08:00 16,9 C 84 % 1019,2 hPa 0,0 l/m 0,0 km/h W 14,2 C 16,9 C 0,0 km/h
13.07.2017 09:00 18,8 C 79 % 1019,1 hPa 0,0 l/m 0,0 km/h N 15,1 C 18,8 C 0,0 km/h
13.07.2017 10:00 23,0 C 66 % 1018,6 hPa 0,0 l/m 12,3 km/h N-NW 16,3 C 21,4 C 6,8 km/h
13.07.2017 11:00 25,0 C 61 % 1018,3 hPa 0,0 l/m 0,0 km/h NW 16,9 C 25,0 C 0,0 km/h
13.07.2017 12:00 25,3 C 57 % 1017,8 hPa 0,0 l/m 0,0 km/h W 16,2 C 25,3 C 0,0 km/h
13.07.2017 13:00 26,8 C 51 % 1017,4 hPa 0,0 l/m 0,0 km/h O 15,8 C 26,8 C 0,0 km/h
13.07.2017 14:00 28,3 C 47 % 1016,8 hPa 0,0 l/m 0,0 km/h O 15,9 C 28,3 C 0,0 km/h
13.07.2017 15:00 26,9 C 45 % 1016,4 hPa 0,0 l/m 0,0 km/h W-NW 13,9 C 26,9 C 0,0 km/h
13.07.2017 16:00 29,4 C 37 % 1015,9 hPa 0,0 l/m 12,3 km/h N 13,2 C 28,8 C 6,8 km/h
13.07.2017 17:00 29,4 C 37 % 1015,7 hPa 0,0 l/m 0,0 km/h N 13,2 C 29,4 C 0,0 km/h
13.07.2017 18:00 27,8 C 41 % 1015,5 hPa 0,0 l/m 0,0 km/h W-NW 13,3 C 27,8 C 0,0 km/h
13.07.2017 19:00 23,4 C 49 % 1015,3 hPa 0,0 l/m 0,0 km/h N 12,1 C 23,4 C 0,0 km/h
13.07.2017 20:00 19,8 C 58 % 1015,4 hPa 0,0 l/m 0,0 km/h O-NO 11,3 C 19,8 C 0,0 km/h
13.07.2017 21:00 16,9 C 68 % 1015,5 hPa 0,0 l/m 0,0 km/h O-NO 11,0 C 16,9 C 0,0 km/h
13.07.2017 22:00 15,8 C 74 % 1015,1 hPa 0,0 l/m 0,0 km/h N-NO 11,2 C 15,8 C 0,0 km/h
13.07.2017 23:00 16,1 C 77 % 1015,4 hPa 0,0 l/m 0,0 km/h SO 12,1 C 16,1 C 0,0 km/h
14.07.2017 00:00 15,9 C 77 % 1014,8 hPa 0,0 l/m 0,0 km/h O-SO 11,9 C 15,9 C 0,0 km/h
14.07.2017 01:00 16,1 C 77 % 1015,0 hPa 0,0 l/m 0,0 km/h O-SO 12,1 C 16,1 C 0,0 km/h
14.07.2017 02:00 15,4 C 80 % 1014,8 hPa 0,0 l/m 0,0 km/h N-NO 12,0 C 15,4 C 0,0 km/h
14.07.2017 03:00 14,9 C 82 % 1014,7 hPa 0,0 l/m 0,0 km/h N-NO 11,9 C 14,9 C 0,0 km/h
14.07.2017 04:00 13,4 C 83 % 1014,6 hPa 0,0 l/m 0,0 km/h O-SO 10,6 C 13,4 C 0,0 km/h
14.07.2017 05:00 13,9 C 82 % 1015,0 hPa 0,0 l/m 0,0 km/h NO 10,9 C 13,9 C 0,0 km/h
14.07.2017 06:00 14,8 C 82 % 1015,2 hPa 0,0 l/m 0,0 km/h NO 11,8 C 14,8 C 0,0 km/h
14.07.2017 07:00 16,4 C 83 % 1015,1 hPa 0,0 l/m 0,0 km/h N-NW 13,5 C 16,4 C 0,0 km/h
14.07.2017 08:00 17,6 C 81 % 1015,5 hPa 0,0 l/m 0,0 km/h N-NO 14,3 C 17,6 C 0,0 km/h
14.07.2017 09:00 17,0 C 83 % 1015,6 hPa 0,5 l/m 0,0 km/h N 14,1 C 17,0 C 0,0 km/h
14.07.2017 10:00 20,6 C 78 % 1015,4 hPa 0,0 l/m 7,8 km/h N 16,6 C 20,1 C 4,3 km/h
14.07.2017 11:00 23,0 C 65 % 1015,4 hPa 0,0 l/m 0,0 km/h W-NW 16,1 C 23,0 C 0,0 km/h
14.07.2017 12:00 25,4 C 56 % 1015,1 hPa 0,0 l/m 0,0 km/h N 16,0 C 25,4 C 0,0 km/h
14.07.2017 13:00 26,9 C 52 % 1014,2 hPa 0,0 l/m 0,0 km/h N-NO 16,2 C 26,9 C 0,0 km/h
14.07.2017 14:00 22,9 C 62 % 1014,5 hPa 0,0 l/m 0,0 km/h SO 15,2 C 22,9 C 0,0 km/h
14.07.2017 15:00 25,6 C 61 % 1014,3 hPa 0,5 l/m 14,3 km/h N-NW 17,5 C 24,1 C 7,9 km/h
14.07.2017 16:00 26,2 C 50 % 1014,0 hPa 0,0 l/m 0,0 km/h W-NW 14,9 C 26,2 C 0,0 km/h
14.07.2017 17:00 29,8 C 37 % 1014,3 hPa 0,0 l/m 15,6 km/h W-NW 13,5 C 29,1 C 8,6 km/h
14.07.2017 18:00 27,8 C 37 % 1014,8 hPa 0,0 l/m 5,8 km/h W-NW 11,8 C 27,8 C 3,2 km/h
14.07.2017 19:00 23,2 C 44 % 1015,4 hPa 0,0 l/m 0,0 km/h W 10,3 C 23,2 C 0,0 km/h
14.07.2017 20:00 21,0 C 47 % 1015,6 hPa 0,0 l/m 0,0 km/h W 9,3 C 21,0 C 0,0 km/h
14.07.2017 21:00 17,1 C 58 % 1016,0 hPa 0,0 l/m 0,0 km/h O-NO 8,8 C 17,1 C 0,0 km/h
14.07.2017 22:00 15,1 C 70 % 1016,6 hPa 0,0 l/m 0,0 km/h NO 9,7 C 15,1 C 0,0 km/h
14.07.2017 23:00 14,4 C 74 % 1017,0 hPa 0,0 l/m 0,0 km/h O-NO 9,8 C 14,4 C 0,0 km/h
15.07.2017 00:00 13,5 C 78 % 1017,2 hPa 0,0 l/m 0,0 km/h O-NO 9,7 C 13,5 C 0,0 km/h
15.07.2017 01:00 14,7 C 77 % 1017,5 hPa 0,0 l/m 0,0 km/h N 10,7 C 14,7 C 0,0 km/h
15.07.2017 02:00 14,6 C 79 % 1017,8 hPa 0,0 l/m 0,0 km/h N-NW 11,0 C 14,6 C 0,0 km/h
15.07.2017 03:00 15,8 C 76 % 1018,1 hPa 0,0 l/m 0,0 km/h N-NW 11,6 C 15,8 C 0,0 km/h
15.07.2017 04:00 15,3 C 77 % 1018,3 hPa 0,0 l/m 0,0 km/h N-NW 11,3 C 15,3 C 0,0 km/h
15.07.2017 05:00 15,0 C 79 % 1018,6 hPa 0,0 l/m 0,0 km/h N-NO 11,4 C 15,0 C 0,0 km/h
15.07.2017 06:00 15,1 C 79 % 1019,0 hPa 0,0 l/m 0,0 km/h N 11,5 C 15,1 C 0,0 km/h
15.07.2017 07:00 16,1 C 75 % 1019,7 hPa 0,0 l/m 0,0 km/h N 11,7 C 16,1 C 0,0 km/h
15.07.2017 08:00 17,3 C 71 % 1020,3 hPa 0,0 l/m 3,9 km/h O-SO 12,0 C 17,3 C 2,2 km/h
15.07.2017 09:00 19,4 C 66 % 1020,4 hPa 0,0 l/m 0,0 km/h O-NO 12,9 C 19,4 C 0,0 km/h
15.07.2017 10:00 19,6 C 57 % 1020,5 hPa 0,0 l/m 0,0 km/h N 10,8 C 19,6 C 0,0 km/h
15.07.2017 11:00 20,8 C 53 % 1020,9 hPa 0,0 l/m 0,0 km/h S 10,9 C 20,8 C 0,0 km/h
15.07.2017 12:00 23,3 C 46 % 1020,9 hPa 0,0 l/m 0,0 km/h N-NO 11,0 C 23,3 C 0,0 km/h
15.07.2017 13:00 24,4 C 42 % 1020,7 hPa 0,0 l/m 0,0 km/h N 10,6 C 24,4 C 0,0 km/h
15.07.2017 14:00 25,1 C 38 % 1020,6 hPa 0,0 l/m 16,2 km/h N 9,8 C 23,3 C 9,0 km/h
15.07.2017 15:00 24,6 C 38 % 1020,6 hPa 0,0 l/m 0,0 km/h N-NO 9,3 C 24,6 C 0,0 km/h
15.07.2017 16:00 26,1 C 36 % 1020,3 hPa 0,0 l/m 0,0 km/h N 9,8 C 26,1 C 0,0 km/h
15.07.2017 17:00 25,7 C 36 % 1020,3 hPa 0,0 l/m 0,0 km/h N-NO 9,5 C 25,7 C 0,0 km/h
15.07.2017 18:00 24,4 C 38 % 1020,5 hPa 0,0 l/m 0,0 km/h N 9,2 C 24,4 C 0,0 km/h
15.07.2017 19:00 22,0 C 40 % 1020,7 hPa 0,0 l/m 0,0 km/h N-NO 7,8 C 22,0 C 0,0 km/h
15.07.2017 20:00 19,3 C 47 % 1020,7 hPa 0,0 l/m 0,0 km/h O-NO 7,7 C 19,3 C 0,0 km/h
15.07.2017 21:00 15,1 C 61 % 1021,1 hPa 0,0 l/m 0,0 km/h O-NO 7,6 C 15,1 C 0,0 km/h
15.07.2017 22:00 13,9 C 66 % 1021,7 hPa 0,0 l/m 0,0 km/h O-SO 7,7 C 13,9 C 0,0 km/h
15.07.2017 23:00 13,1 C 72 % 1021,7 hPa 0,0 l/m 0,0 km/h O-SO 8,2 C 13,1 C 0,0 km/h
16.07.2017 00:00 12,3 C 75 % 1021,9 hPa 0,0 l/m 0,0 km/h NO 8,0 C 12,3 C 0,0 km/h
16.07.2017 01:00 11,7 C 78 % 1021,8 hPa 0,0 l/m 0,0 km/h O-SO 8,0 C 11,7 C 0,0 km/h
16.07.2017 02:00 11,9 C 79 % 1021,8 hPa 0,0 l/m 0,0 km/h O 8,4 C 11,9 C 0,0 km/h
16.07.2017 03:00 12,4 C 79 % 1021,5 hPa 0,0 l/m 0,0 km/h O 8,9 C 12,4 C 0,0 km/h
16.07.2017 04:00 12,5 C 79 % 1021,8 hPa 0,0 l/m 0,0 km/h SO 9,0 C 12,5 C 0,0 km/h
16.07.2017 05:00 12,4 C 78 % 1021,9 hPa 0,0 l/m 0,0 km/h O-NO 8,7 C 12,4 C 0,0 km/h
16.07.2017 06:00 13,4 C 78 % 1022,0 hPa 0,0 l/m 0,0 km/h SO 9,6 C 13,4 C 0,0 km/h
16.07.2017 07:00 16,4 C 77 % 1022,3 hPa 0,0 l/m 0,0 km/h S-SW 12,4 C 16,4 C 0,0 km/h
16.07.2017 08:00 20,6 C 63 % 1022,4 hPa 0,0 l/m 0,0 km/h W-NW 13,3 C 20,6 C 0,0 km/h
16.07.2017 09:00 23,5 C 50 % 1022,7 hPa 0,0 l/m 0,0 km/h W-NW 12,5 C 23,5 C 0,0 km/h
16.07.2017 10:00 24,8 C 45 % 1022,3 hPa 0,0 l/m 0,0 km/h W 12,0 C 24,8 C 0,0 km/h
16.07.2017 11:00 26,1 C 40 % 1022,2 hPa 0,0 l/m 0,0 km/h W 11,4 C 26,1 C 0,0 km/h
16.07.2017 12:00 26,2 C 37 % 1021,8 hPa 0,0 l/m 0,0 km/h N-NO 10,3 C 26,2 C 0,0 km/h
16.07.2017 13:00 27,6 C 35 % 1021,3 hPa 0,0 l/m 0,0 km/h N-NW 10,7 C 27,6 C 0,0 km/h
16.07.2017 14:00 28,7 C 36 % 1020,7 hPa 0,0 l/m 0,0 km/h NW 12,1 C 28,7 C 0,0 km/h
16.07.2017 15:00 29,4 C 35 % 1020,2 hPa 0,0 l/m 0,0 km/h N 12,3 C 29,4 C 0,0 km/h
16.07.2017 16:00 31,1 C 33 % 1020,2 hPa 0,0 l/m 0,0 km/h N-NO 12,9 C 31,1 C 0,0 km/h
16.07.2017 17:00 28,6 C 37 % 1019,8 hPa 0,0 l/m 0,0 km/h N 12,5 C 28,6 C 0,0 km/h
16.07.2017 18:00 27,1 C 41 % 1019,5 hPa 0,0 l/m 0,0 km/h N 12,7 C 27,1 C 0,0 km/h
16.07.2017 19:00 24,7 C 48 % 1019,5 hPa 0,0 l/m 0,0 km/h N 12,9 C 24,7 C 0,0 km/h
16.07.2017 20:00 23,5 C 51 % 1019,7 hPa 0,0 l/m 0,0 km/h N 12,8 C 23,5 C 0,0 km/h
16.07.2017 21:00 19,8 C 62 % 1019,9 hPa 0,0 l/m 0,0 km/h O-SO 12,3 C 19,8 C 0,0 km/h
16.07.2017 22:00 17,9 C 70 % 1019,8 hPa 0,0 l/m 0,0 km/h O-SO 12,3 C 17,9 C 0,0 km/h
16.07.2017 23:00 16,8 C 72 % 1019,8 hPa 0,0 l/m 0,0 km/h O-SO 11,7 C 16,8 C 0,0 km/h
Min-Datum _ 16.07.17 16.07.17 10.07.17 - 10.07.17 - 15.07.17 10.07.17 10.07.17
_ Min-Zeit 01:55 16:55 05:55 - 00:55 - 21:55 21:55 00:55
Minimum _ 11,7 C 33 % 1007,4 hPa - 0,0 km/h - 7,6 C 10,2 C 0,0 km/h
Max-Datum _ 16.07.17 13.07.17 16.07.17 10.07.17 12.07.17 - 10.07.17 16.07.17 12.07.17
_ Max-Zeit 16:55 08:55 09:55 21:55 11:55 - 17:55 16:55 11:55
Maximum _ 31,1 C 84 % 1022,7 hPa 11,9 l/m 31,8 km/h
W-SW
- 20,1 C 31,1 C 17,6 km/h
W-SW
Durchschnitt _ 20,2 C 67 % 1015,3 hPa #19,7 l/m 3,3 km/h N 13,3 C 19,8 C 1,8 km/h
www.sexauwetter.de